Terminal Aerodrome Forecast
Issued by NWS Bismarck, ND

Current Version | Previous Version | Text Only | Print | Product List | Glossary On
Versions: 1 2 3 4 5 6 7 8 9 10 11 12 13 14 15 16 17 18 19
000
FTUS43 KBIS 281126
TAFBIS
TAF
KBIS 281126Z 2812/2912 VRB03KT P6SM FEW120 SCT250
     FM281600 03007KT P6SM SKC
     FM290300 VRB03KT P6SM FEW250=

USA.gov is the U.S. government's official web portal to all federal, state and local government web resources and services.